sensor_id;sensor_type;location;lat;lon;timestamp;temperature;humidity
16172;DHT22;8192;53.596;10.166;2023-10-08T00:02:10;10.50;99.90
16172;DHT22;8192;53.596;10.166;2023-10-08T00:04:40;10.40;99.90
16172;DHT22;8192;53.596;10.166;2023-10-08T00:07:09;10.50;99.90
16172;DHT22;8192;53.596;10.166;2023-10-08T00:09:37;10.50;99.90
16172;DHT22;8192;53.596;10.166;2023-10-08T00:12:06;10.50;99.90
16172;DHT22;8192;53.596;10.166;2023-10-08T00:14:34;10.50;99.90
16172;DHT22;8192;53.596;10.166;2023-10-08T00:17:10;10.50;99.90
16172;DHT22;8192;53.596;10.166;2023-10-08T00:19:37;10.50;99.90
16172;DHT22;8192;53.596;10.166;2023-10-08T00:22:05;10.50;99.90
16172;DHT22;8192;53.596;10.166;2023-10-08T00:24:33;10.50;99.90
16172;DHT22;8192;53.596;10.166;2023-10-08T00:27:00;10.40;99.90
16172;DHT22;8192;53.596;10.166;2023-10-08T00:29:31;10.40;99.90
16172;DHT22;8192;53.596;10.166;2023-10-08T00:31:58;10.40;99.90
16172;DHT22;8192;53.596;10.166;2023-10-08T00:34:28;10.40;99.90
16172;DHT22;8192;53.596;10.166;2023-10-08T00:36:55;10.40;99.90
16172;DHT22;8192;53.596;10.166;2023-10-08T00:39:23;10.40;99.90
16172;DHT22;8192;53.596;10.166;2023-10-08T00:41:52;10.40;99.90
16172;DHT22;8192;53.596;10.166;2023-10-08T00:44:24;10.30;99.90
16172;DHT22;8192;53.596;10.166;2023-10-08T00:46:57;10.40;99.90
16172;DHT22;8192;53.596;10.166;2023-10-08T00:49:27;10.40;99.90
16172;DHT22;8192;53.596;10.166;2023-10-08T00:52:14;10.50;99.90
16172;DHT22;8192;53.596;10.166;2023-10-08T00:55:04;10.40;99.90
16172;DHT22;8192;53.596;10.166;2023-10-08T00:57:35;10.40;99.90
16172;DHT22;8192;53.596;10.166;2023-10-08T01:00:09;10.40;99.90
16172;DHT22;8192;53.596;10.166;2023-10-08T01:02:44;10.40;99.90
16172;DHT22;8192;53.596;10.166;2023-10-08T01:05:15;10.30;99.90
16172;DHT22;8192;53.596;10.166;2023-10-08T01:07:46;10.40;99.90
16172;DHT22;8192;53.596;10.166;2023-10-08T01:10:16;10.40;99.90
16172;DHT22;8192;53.596;10.166;2023-10-08T01:12:46;10.30;99.90
16172;DHT22;8192;53.596;10.166;2023-10-08T01:15:29;10.30;99.90
16172;DHT22;8192;53.596;10.166;2023-10-08T01:17:59;10.30;99.90
16172;DHT22;8192;53.596;10.166;2023-10-08T01:20:26;10.30;99.90
16172;DHT22;8192;53.596;10.166;2023-10-08T01:23:03;10.30;99.90
16172;DHT22;8192;53.596;10.166;2023-10-08T01:25:39;10.40;99.90
16172;DHT22;8192;53.596;10.166;2023-10-08T01:28:07;10.30;99.90
16172;DHT22;8192;53.596;10.166;2023-10-08T01:30:41;10.30;99.90
16172;DHT22;8192;53.596;10.166;2023-10-08T01:33:09;10.30;99.90
16172;DHT22;8192;53.596;10.166;2023-10-08T01:35:41;10.30;99.90
16172;DHT22;8192;53.596;10.166;2023-10-08T01:38:09;10.30;99.90
16172;DHT22;8192;53.596;10.166;2023-10-08T01:40:40;10.30;99.90
16172;DHT22;8192;53.596;10.166;2023-10-08T01:43:07;10.20;99.90
16172;DHT22;8192;53.596;10.166;2023-10-08T01:45:38;10.20;99.90
16172;DHT22;8192;53.596;10.166;2023-10-08T01:48:08;10.20;99.90
16172;DHT22;8192;53.596;10.166;2023-10-08T01:50:36;10.20;99.90
16172;DHT22;8192;53.596;10.166;2023-10-08T01:53:04;10.20;99.90
16172;DHT22;8192;53.596;10.166;2023-10-08T01:55:35;10.20;99.90
16172;DHT22;8192;53.596;10.166;2023-10-08T01:58:15;10.20;99.90
16172;DHT22;8192;53.596;10.166;2023-10-08T02:00:43;10.20;99.90
16172;DHT22;8192;53.596;10.166;2023-10-08T02:03:12;10.20;99.90
16172;DHT22;8192;53.596;10.166;2023-10-08T02:05:41;10.20;99.90
16172;DHT22;8192;53.596;10.166;2023-10-08T02:08:08;10.20;99.90
16172;DHT22;8192;53.596;10.166;2023-10-08T02:10:38;10.10;99.90
16172;DHT22;8192;53.596;10.166;2023-10-08T02:13:06;10.10;99.90
16172;DHT22;8192;53.596;10.166;2023-10-08T02:15:34;10.10;99.90
16172;DHT22;8192;53.596;10.166;2023-10-08T02:18:02;10.10;99.90
16172;DHT22;8192;53.596;10.166;2023-10-08T02:20:29;10.10;99.90
16172;DHT22;8192;53.596;10.166;2023-10-08T02:22:56;10.00;99.90
16172;DHT22;8192;53.596;10.166;2023-10-08T02:25:23;10.00;99.90
16172;DHT22;8192;53.596;10.166;2023-10-08T02:27:51;9.90;99.90
16172;DHT22;8192;53.596;10.166;2023-10-08T02:30:18;9.90;99.90
16172;DHT22;8192;53.596;10.166;2023-10-08T02:32:45;9.90;99.90
16172;DHT22;8192;53.596;10.166;2023-10-08T02:35:12;9.90;99.90
16172;DHT22;8192;53.596;10.166;2023-10-08T02:37:40;9.90;99.90
16172;DHT22;8192;53.596;10.166;2023-10-08T02:40:08;9.90;99.90
16172;DHT22;8192;53.596;10.166;2023-10-08T02:42:43;9.90;99.90
16172;DHT22;8192;53.596;10.166;2023-10-08T02:45:12;9.90;99.90
16172;DHT22;8192;53.596;10.166;2023-10-08T02:47:41;9.90;99.90
16172;DHT22;8192;53.596;10.166;2023-10-08T02:50:10;9.90;99.90
16172;DHT22;8192;53.596;10.166;2023-10-08T02:52:37;9.90;99.90
16172;DHT22;8192;53.596;10.166;2023-10-08T02:55:05;9.90;99.90
16172;DHT22;8192;53.596;10.166;2023-10-08T02:57:44;10.00;99.90
16172;DHT22;8192;53.596;10.166;2023-10-08T03:00:13;10.00;99.90
16172;DHT22;8192;53.596;10.166;2023-10-08T03:02:41;9.90;99.90
16172;DHT22;8192;53.596;10.166;2023-10-08T03:05:08;9.90;99.90
16172;DHT22;8192;53.596;10.166;2023-10-08T03:07:39;9.80;99.90
16172;DHT22;8192;53.596;10.166;2023-10-08T03:10:07;9.80;99.90
16172;DHT22;8192;53.596;10.166;2023-10-08T03:12:43;9.80;99.90
16172;DHT22;8192;53.596;10.166;2023-10-08T03:15:14;9.80;99.90
16172;DHT22;8192;53.596;10.166;2023-10-08T03:17:54;9.80;99.90
16172;DHT22;8192;53.596;10.166;2023-10-08T03:20:23;9.70;99.90
16172;DHT22;8192;53.596;10.166;2023-10-08T03:23:04;9.70;99.90
16172;DHT22;8192;53.596;10.166;2023-10-08T03:25:38;9.80;99.90
16172;DHT22;8192;53.596;10.166;2023-10-08T03:28:07;9.80;99.90
16172;DHT22;8192;53.596;10.166;2023-10-08T03:30:40;9.70;99.90
16172;DHT22;8192;53.596;10.166;2023-10-08T03:33:16;9.70;99.90
16172;DHT22;8192;53.596;10.166;2023-10-08T03:35:48;9.50;99.90
16172;DHT22;8192;53.596;10.166;2023-10-08T03:38:18;9.40;99.90
16172;DHT22;8192;53.596;10.166;2023-10-08T03:40:54;9.40;99.90
16172;DHT22;8192;53.596;10.166;2023-10-08T03:43:26;9.50;99.90
16172;DHT22;8192;53.596;10.166;2023-10-08T03:46:09;9.50;99.90
16172;DHT22;8192;53.596;10.166;2023-10-08T03:48:41;9.40;99.90
16172;DHT22;8192;53.596;10.166;2023-10-08T03:51:10;9.40;99.90
16172;DHT22;8192;53.596;10.166;2023-10-08T03:53:38;9.40;99.90
16172;DHT22;8192;53.596;10.166;2023-10-08T03:56:24;9.40;99.90
16172;DHT22;8192;53.596;10.166;2023-10-08T03:58:51;9.30;99.90
16172;DHT22;8192;53.596;10.166;2023-10-08T04:01:21;9.20;99.90
16172;DHT22;8192;53.596;10.166;2023-10-08T04:03:50;9.10;99.90
16172;DHT22;8192;53.596;10.166;2023-10-08T04:06:27;9.20;99.90
16172;DHT22;8192;53.596;10.166;2023-10-08T04:09:04;9.00;99.90
16172;DHT22;8192;53.596;10.166;2023-10-08T04:11:50;8.90;99.90
16172;DHT22;8192;53.596;10.166;2023-10-08T04:14:23;8.80;99.90
16172;DHT22;8192;53.596;10.166;2023-10-08T04:16:51;9.10;99.90
16172;DHT22;8192;53.596;10.166;2023-10-08T04:19:19;9.00;99.90
16172;DHT22;8192;53.596;10.166;2023-10-08T04:21:50;8.90;99.90
16172;DHT22;8192;53.596;10.166;2023-10-08T04:24:21;8.80;99.90
16172;DHT22;8192;53.596;10.166;2023-10-08T04:26:55;8.90;99.90
16172;DHT22;8192;53.596;10.166;2023-10-08T04:29:23;8.80;99.90
16172;DHT22;8192;53.596;10.166;2023-10-08T04:31:52;8.70;99.90
16172;DHT22;8192;53.596;10.166;2023-10-08T04:34:33;8.80;99.90
16172;DHT22;8192;53.596;10.166;2023-10-08T04:37:00;8.90;99.90
16172;DHT22;8192;53.596;10.166;2023-10-08T04:39:29;8.70;99.90
16172;DHT22;8192;53.596;10.166;2023-10-08T04:41:59;8.70;99.90
16172;DHT22;8192;53.596;10.166;2023-10-08T04:44:32;8.70;99.90
16172;DHT22;8192;53.596;10.166;2023-10-08T04:47:01;8.70;99.90
16172;DHT22;8192;53.596;10.166;2023-10-08T04:49:32;8.80;99.90
16172;DHT22;8192;53.596;10.166;2023-10-08T04:52:00;8.80;99.90
16172;DHT22;8192;53.596;10.166;2023-10-08T04:54:30;8.80;99.90
16172;DHT22;8192;53.596;10.166;2023-10-08T04:56:58;8.90;99.90
16172;DHT22;8192;53.596;10.166;2023-10-08T04:59:26;9.00;99.90
16172;DHT22;8192;53.596;10.166;2023-10-08T05:02:01;8.90;99.90
16172;DHT22;8192;53.596;10.166;2023-10-08T05:04:47;8.90;99.90
16172;DHT22;8192;53.596;10.166;2023-10-08T05:07:43;9.00;99.90
16172;DHT22;8192;53.596;10.166;2023-10-08T05:10:43;9.00;99.90
16172;DHT22;8192;53.596;10.166;2023-10-08T05:13:40;8.90;99.90
16172;DHT22;8192;53.596;10.166;2023-10-08T05:16:22;8.90;99.90
16172;DHT22;8192;53.596;10.166;2023-10-08T05:19:03;8.80;99.90
16172;DHT22;8192;53.596;10.166;2023-10-08T05:21:49;8.80;99.90
16172;DHT22;8192;53.596;10.166;2023-10-08T05:24:31;8.80;99.90
16172;DHT22;8192;53.596;10.166;2023-10-08T05:27:04;8.80;99.90
16172;DHT22;8192;53.596;10.166;2023-10-08T05:30:03;8.90;99.90
16172;DHT22;8192;53.596;10.166;2023-10-08T05:32:41;8.80;99.90
16172;DHT22;8192;53.596;10.166;2023-10-08T05:35:33;8.80;99.90
16172;DHT22;8192;53.596;10.166;2023-10-08T05:38:15;8.90;99.90
16172;DHT22;8192;53.596;10.166;2023-10-08T05:40:48;8.80;99.90
16172;DHT22;8192;53.596;10.166;2023-10-08T05:43:36;8.70;99.90
16172;DHT22;8192;53.596;10.166;2023-10-08T05:46:21;8.70;99.90
16172;DHT22;8192;53.596;10.166;2023-10-08T05:49:13;8.70;99.90
16172;DHT22;8192;53.596;10.166;2023-10-08T05:51:58;8.60;99.90
16172;DHT22;8192;53.596;10.166;2023-10-08T05:54:42;8.60;99.90
16172;DHT22;8192;53.596;10.166;2023-10-08T05:57:34;8.60;99.90
16172;DHT22;8192;53.596;10.166;2023-10-08T06:00:05;8.60;99.90
16172;DHT22;8192;53.596;10.166;2023-10-08T06:03:01;8.70;99.90
16172;DHT22;8192;53.596;10.166;2023-10-08T06:05:58;8.60;99.90
16172;DHT22;8192;53.596;10.166;2023-10-08T06:08:49;8.50;99.90
16172;DHT22;8192;53.596;10.166;2023-10-08T06:11:34;8.40;99.90
16172;DHT22;8192;53.596;10.166;2023-10-08T06:14:10;8.30;99.90
16172;DHT22;8192;53.596;10.166;2023-10-08T06:16:43;8.20;99.90
16172;DHT22;8192;53.596;10.166;2023-10-08T06:19:10;8.20;99.90
16172;DHT22;8192;53.596;10.166;2023-10-08T06:21:39;8.20;99.90
16172;DHT22;8192;53.596;10.166;2023-10-08T06:24:08;8.20;99.90
16172;DHT22;8192;53.596;10.166;2023-10-08T06:26:36;8.30;99.90
16172;DHT22;8192;53.596;10.166;2023-10-08T06:29:09;8.50;99.90
16172;DHT22;8192;53.596;10.166;2023-10-08T06:31:45;9.40;99.90
16172;DHT22;8192;53.596;10.166;2023-10-08T06:34:17;10.50;99.90
16172;DHT22;8192;53.596;10.166;2023-10-08T06:36:47;11.30;99.90
16172;DHT22;8192;53.596;10.166;2023-10-08T06:39:17;11.90;99.90
16172;DHT22;8192;53.596;10.166;2023-10-08T06:41:45;12.50;99.90
16172;DHT22;8192;53.596;10.166;2023-10-08T06:44:13;13.00;99.90
16172;DHT22;8192;53.596;10.166;2023-10-08T06:46:41;13.40;99.90
16172;DHT22;8192;53.596;10.166;2023-10-08T06:49:08;13.80;99.90
16172;DHT22;8192;53.596;10.166;2023-10-08T06:51:38;14.10;99.90
16172;DHT22;8192;53.596;10.166;2023-10-08T06:54:07;14.10;99.90
16172;DHT22;8192;53.596;10.166;2023-10-08T06:56:38;14.50;99.90
16172;DHT22;8192;53.596;10.166;2023-10-08T06:59:05;14.40;99.90
16172;DHT22;8192;53.596;10.166;2023-10-08T07:01:35;14.30;99.90
16172;DHT22;8192;53.596;10.166;2023-10-08T07:04:05;14.40;99.90
16172;DHT22;8192;53.596;10.166;2023-10-08T07:06:37;14.50;99.90
16172;DHT22;8192;53.596;10.166;2023-10-08T07:09:06;14.90;99.90
16172;DHT22;8192;53.596;10.166;2023-10-08T07:11:49;14.90;99.90
16172;DHT22;8192;53.596;10.166;2023-10-08T07:14:20;14.30;99.90
16172;DHT22;8192;53.596;10.166;2023-10-08T07:16:48;13.60;99.90
16172;DHT22;8192;53.596;10.166;2023-10-08T07:19:18;12.80;99.90
16172;DHT22;8192;53.596;10.166;2023-10-08T07:21:45;12.20;99.90
16172;DHT22;8192;53.596;10.166;2023-10-08T07:24:15;11.70;99.90
16172;DHT22;8192;53.596;10.166;2023-10-08T07:26:43;11.40;99.90
16172;DHT22;8192;53.596;10.166;2023-10-08T07:29:15;11.10;99.90
16172;DHT22;8192;53.596;10.166;2023-10-08T07:31:44;11.00;99.90
16172;DHT22;8192;53.596;10.166;2023-10-08T07:34:14;10.90;99.90
16172;DHT22;8192;53.596;10.166;2023-10-08T07:36:51;10.90;99.90
16172;DHT22;8192;53.596;10.166;2023-10-08T07:39:21;10.90;99.90
16172;DHT22;8192;53.596;10.166;2023-10-08T07:42:02;10.90;99.90
16172;DHT22;8192;53.596;10.166;2023-10-08T07:44:32;11.00;99.90
16172;DHT22;8192;53.596;10.166;2023-10-08T07:47:01;11.00;99.90
16172;DHT22;8192;53.596;10.166;2023-10-08T07:49:31;11.00;99.90
16172;DHT22;8192;53.596;10.166;2023-10-08T07:51:58;11.00;99.90
16172;DHT22;8192;53.596;10.166;2023-10-08T07:54:26;11.00;99.90
16172;DHT22;8192;53.596;10.166;2023-10-08T07:56:54;11.10;99.90
16172;DHT22;8192;53.596;10.166;2023-10-08T07:59:25;11.10;99.90
16172;DHT22;8192;53.596;10.166;2023-10-08T08:01:54;11.00;99.90
16172;DHT22;8192;53.596;10.166;2023-10-08T08:04:20;11.00;99.90
16172;DHT22;8192;53.596;10.166;2023-10-08T08:06:48;11.10;99.90
16172;DHT22;8192;53.596;10.166;2023-10-08T08:09:17;11.00;99.90
16172;DHT22;8192;53.596;10.166;2023-10-08T08:11:49;11.00;99.90
16172;DHT22;8192;53.596;10.166;2023-10-08T08:14:17;11.00;99.90
16172;DHT22;8192;53.596;10.166;2023-10-08T08:16:51;11.00;99.90
16172;DHT22;8192;53.596;10.166;2023-10-08T08:19:20;11.10;99.90
16172;DHT22;8192;53.596;10.166;2023-10-08T08:21:50;11.10;99.90
16172;DHT22;8192;53.596;10.166;2023-10-08T08:24:18;11.20;99.90
16172;DHT22;8192;53.596;10.166;2023-10-08T08:26:54;11.20;99.90
16172;DHT22;8192;53.596;10.166;2023-10-08T08:29:33;11.20;99.90
16172;DHT22;8192;53.596;10.166;2023-10-08T08:32:10;11.20;99.90
16172;DHT22;8192;53.596;10.166;2023-10-08T08:34:42;11.20;99.90
16172;DHT22;8192;53.596;10.166;2023-10-08T08:37:11;11.30;99.90
16172;DHT22;8192;53.596;10.166;2023-10-08T08:39:38;11.40;99.90
16172;DHT22;8192;53.596;10.166;2023-10-08T08:42:07;11.40;99.90
16172;DHT22;8192;53.596;10.166;2023-10-08T08:44:36;11.40;99.90
16172;DHT22;8192;53.596;10.166;2023-10-08T08:47:10;11.50;99.90
16172;DHT22;8192;53.596;10.166;2023-10-08T08:49:43;11.60;99.90
16172;DHT22;8192;53.596;10.166;2023-10-08T08:52:10;11.60;99.90
16172;DHT22;8192;53.596;10.166;2023-10-08T08:54:38;11.70;99.90
16172;DHT22;8192;53.596;10.166;2023-10-08T08:57:05;11.80;99.90
16172;DHT22;8192;53.596;10.166;2023-10-08T08:59:40;11.90;99.90
16172;DHT22;8192;53.596;10.166;2023-10-08T09:02:12;11.90;99.90
16172;DHT22;8192;53.596;10.166;2023-10-08T09:04:41;12.00;99.90
16172;DHT22;8192;53.596;10.166;2023-10-08T09:07:10;12.00;99.90
16172;DHT22;8192;53.596;10.166;2023-10-08T09:09:38;12.10;99.90
16172;DHT22;8192;53.596;10.166;2023-10-08T09:12:07;12.00;99.90
16172;DHT22;8192;53.596;10.166;2023-10-08T09:14:36;12.00;99.90
16172;DHT22;8192;53.596;10.166;2023-10-08T09:17:04;12.10;99.90
16172;DHT22;8192;53.596;10.166;2023-10-08T09:19:36;12.10;99.90
16172;DHT22;8192;53.596;10.166;2023-10-08T09:22:05;12.20;99.90
16172;DHT22;8192;53.596;10.166;2023-10-08T09:24:34;12.30;99.90
16172;DHT22;8192;53.596;10.166;2023-10-08T09:27:02;12.40;99.90
16172;DHT22;8192;53.596;10.166;2023-10-08T09:29:30;12.50;99.90
16172;DHT22;8192;53.596;10.166;2023-10-08T09:31:59;12.50;99.90
16172;DHT22;8192;53.596;10.166;2023-10-08T09:34:27;12.60;99.90
16172;DHT22;8192;53.596;10.166;2023-10-08T09:36:56;12.70;99.90
16172;DHT22;8192;53.596;10.166;2023-10-08T09:39:26;12.80;99.90
16172;DHT22;8192;53.596;10.166;2023-10-08T09:41:56;12.80;99.90
16172;DHT22;8192;53.596;10.166;2023-10-08T09:44:24;12.90;99.90
16172;DHT22;8192;53.596;10.166;2023-10-08T09:46:59;13.00;99.90
16172;DHT22;8192;53.596;10.166;2023-10-08T09:49:32;13.10;99.90
16172;DHT22;8192;53.596;10.166;2023-10-08T09:52:03;13.20;99.90
16172;DHT22;8192;53.596;10.166;2023-10-08T09:54:36;13.00;99.90
16172;DHT22;8192;53.596;10.166;2023-10-08T09:57:07;12.80;99.90
16172;DHT22;8192;53.596;10.166;2023-10-08T09:59:35;12.90;99.90
16172;DHT22;8192;53.596;10.166;2023-10-08T10:02:04;13.00;99.90
16172;DHT22;8192;53.596;10.166;2023-10-08T10:04:35;13.10;99.90
16172;DHT22;8192;53.596;10.166;2023-10-08T10:07:09;13.10;99.90
16172;DHT22;8192;53.596;10.166;2023-10-08T10:09:38;13.20;99.90
16172;DHT22;8192;53.596;10.166;2023-10-08T10:12:07;13.20;99.90
16172;DHT22;8192;53.596;10.166;2023-10-08T10:14:41;13.20;99.90
16172;DHT22;8192;53.596;10.166;2023-10-08T10:17:10;13.40;99.90
16172;DHT22;8192;53.596;10.166;2023-10-08T10:19:40;13.50;99.90
16172;DHT22;8192;53.596;10.166;2023-10-08T10:22:12;13.60;99.90
16172;DHT22;8192;53.596;10.166;2023-10-08T10:24:41;13.50;99.90
16172;DHT22;8192;53.596;10.166;2023-10-08T10:27:14;13.50;99.90
16172;DHT22;8192;53.596;10.166;2023-10-08T10:29:41;13.60;99.90
16172;DHT22;8192;53.596;10.166;2023-10-08T10:32:11;13.50;99.90
16172;DHT22;8192;53.596;10.166;2023-10-08T10:34:41;13.80;99.90
16172;DHT22;8192;53.596;10.166;2023-10-08T10:37:11;13.90;99.90
16172;DHT22;8192;53.596;10.166;2023-10-08T10:39:53;14.00;99.90
16172;DHT22;8192;53.596;10.166;2023-10-08T10:42:23;14.10;99.90
16172;DHT22;8192;53.596;10.166;2023-10-08T10:44:54;14.20;99.90
16172;DHT22;8192;53.596;10.166;2023-10-08T10:47:22;14.50;99.90
16172;DHT22;8192;53.596;10.166;2023-10-08T10:49:52;14.30;99.90
16172;DHT22;8192;53.596;10.166;2023-10-08T10:52:21;14.10;99.90
16172;DHT22;8192;53.596;10.166;2023-10-08T10:55:11;14.00;99.90
16172;DHT22;8192;53.596;10.166;2023-10-08T10:57:49;14.00;99.90
16172;DHT22;8192;53.596;10.166;2023-10-08T11:00:20;14.00;99.90
16172;DHT22;8192;53.596;10.166;2023-10-08T11:03:03;13.90;99.90
16172;DHT22;8192;53.596;10.166;2023-10-08T11:05:42;14.00;99.90
16172;DHT22;8192;53.596;10.166;2023-10-08T11:08:14;14.10;99.90
16172;DHT22;8192;53.596;10.166;2023-10-08T11:10:44;14.60;99.90
16172;DHT22;8192;53.596;10.166;2023-10-08T11:13:18;14.90;99.90
16172;DHT22;8192;53.596;10.166;2023-10-08T11:15:48;15.20;99.90
16172;DHT22;8192;53.596;10.166;2023-10-08T11:18:18;15.60;99.90
16172;DHT22;8192;53.596;10.166;2023-10-08T11:20:47;15.40;99.90
16172;DHT22;8192;53.596;10.166;2023-10-08T11:23:32;15.30;99.90
16172;DHT22;8192;53.596;10.166;2023-10-08T11:26:01;15.10;99.90
16172;DHT22;8192;53.596;10.166;2023-10-08T11:28:36;15.20;99.90
16172;DHT22;8192;53.596;10.166;2023-10-08T11:31:11;15.10;99.90
16172;DHT22;8192;53.596;10.166;2023-10-08T11:33:40;15.30;99.90
16172;DHT22;8192;53.596;10.166;2023-10-08T11:36:10;15.40;99.90
16172;DHT22;8192;53.596;10.166;2023-10-08T11:38:45;15.40;99.90
16172;DHT22;8192;53.596;10.166;2023-10-08T11:41:16;15.40;99.90
16172;DHT22;8192;53.596;10.166;2023-10-08T11:43:55;15.50;99.90
16172;DHT22;8192;53.596;10.166;2023-10-08T11:46:24;15.40;99.90
16172;DHT22;8192;53.596;10.166;2023-10-08T11:48:59;15.10;99.90
16172;DHT22;8192;53.596;10.166;2023-10-08T11:51:30;15.30;99.90
16172;DHT22;8192;53.596;10.166;2023-10-08T11:53:58;15.30;99.90
16172;DHT22;8192;53.596;10.166;2023-10-08T11:56:25;15.30;99.90
16172;DHT22;8192;53.596;10.166;2023-10-08T11:58:55;15.30;99.90
16172;DHT22;8192;53.596;10.166;2023-10-08T12:01:23;15.20;99.90
16172;DHT22;8192;53.596;10.166;2023-10-08T12:03:50;14.90;99.90
16172;DHT22;8192;53.596;10.166;2023-10-08T12:06:17;14.40;99.90
16172;DHT22;8192;53.596;10.166;2023-10-08T12:08:46;14.30;99.90
16172;DHT22;8192;53.596;10.166;2023-10-08T12:11:14;14.40;99.90
16172;DHT22;8192;53.596;10.166;2023-10-08T12:13:41;14.30;99.90
16172;DHT22;8192;53.596;10.166;2023-10-08T12:16:13;14.50;99.90
16172;DHT22;8192;53.596;10.166;2023-10-08T12:18:45;14.70;99.90
16172;DHT22;8192;53.596;10.166;2023-10-08T12:21:15;14.90;99.90
16172;DHT22;8192;53.596;10.166;2023-10-08T12:23:43;15.00;99.90
16172;DHT22;8192;53.596;10.166;2023-10-08T12:26:12;14.90;99.90
16172;DHT22;8192;53.596;10.166;2023-10-08T12:28:41;14.80;99.90
16172;DHT22;8192;53.596;10.166;2023-10-08T12:31:12;14.70;99.90
16172;DHT22;8192;53.596;10.166;2023-10-08T12:33:41;14.50;99.90
16172;DHT22;8192;53.596;10.166;2023-10-08T12:36:09;14.30;99.90
16172;DHT22;8192;53.596;10.166;2023-10-08T12:38:40;14.30;99.90
16172;DHT22;8192;53.596;10.166;2023-10-08T12:41:08;14.40;99.90
16172;DHT22;8192;53.596;10.166;2023-10-08T12:43:38;14.30;99.90
16172;DHT22;8192;53.596;10.166;2023-10-08T12:46:08;14.30;99.90
16172;DHT22;8192;53.596;10.166;2023-10-08T12:48:43;14.30;99.90
16172;DHT22;8192;53.596;10.166;2023-10-08T12:51:13;14.20;99.90
16172;DHT22;8192;53.596;10.166;2023-10-08T12:53:41;14.10;99.90
16172;DHT22;8192;53.596;10.166;2023-10-08T12:56:16;14.00;99.90
16172;DHT22;8192;53.596;10.166;2023-10-08T12:58:47;14.10;99.90
16172;DHT22;8192;53.596;10.166;2023-10-08T13:01:17;14.20;99.90
16172;DHT22;8192;53.596;10.166;2023-10-08T13:03:46;14.50;99.90
16172;DHT22;8192;53.596;10.166;2023-10-08T13:06:14;14.80;99.90
16172;DHT22;8192;53.596;10.166;2023-10-08T13:08:48;15.00;99.90
16172;DHT22;8192;53.596;10.166;2023-10-08T13:11:18;15.20;99.90
16172;DHT22;8192;53.596;10.166;2023-10-08T13:13:49;15.30;99.90
16172;DHT22;8192;53.596;10.166;2023-10-08T13:16:16;15.40;99.90
16172;DHT22;8192;53.596;10.166;2023-10-08T13:18:44;15.80;99.90
16172;DHT22;8192;53.596;10.166;2023-10-08T13:21:13;15.80;99.90
16172;DHT22;8192;53.596;10.166;2023-10-08T13:23:40;15.60;99.90
16172;DHT22;8192;53.596;10.166;2023-10-08T13:26:07;15.50;99.90
16172;DHT22;8192;53.596;10.166;2023-10-08T13:28:34;15.50;99.90
16172;DHT22;8192;53.596;10.166;2023-10-08T13:31:02;15.50;99.90
16172;DHT22;8192;53.596;10.166;2023-10-08T13:33:36;15.50;99.90
16172;DHT22;8192;53.596;10.166;2023-10-08T13:36:07;15.70;99.90
16172;DHT22;8192;53.596;10.166;2023-10-08T13:38:39;15.70;99.90
16172;DHT22;8192;53.596;10.166;2023-10-08T13:41:07;15.70;99.90
16172;DHT22;8192;53.596;10.166;2023-10-08T13:43:41;15.80;99.90
16172;DHT22;8192;53.596;10.166;2023-10-08T13:46:11;15.80;99.90
16172;DHT22;8192;53.596;10.166;2023-10-08T13:48:40;16.00;99.90
16172;DHT22;8192;53.596;10.166;2023-10-08T13:51:09;16.00;99.90
16172;DHT22;8192;53.596;10.166;2023-10-08T13:53:40;15.90;99.90
16172;DHT22;8192;53.596;10.166;2023-10-08T13:56:11;16.00;99.90
16172;DHT22;8192;53.596;10.166;2023-10-08T13:58:39;16.00;99.90
16172;DHT22;8192;53.596;10.166;2023-10-08T14:01:11;15.80;99.90
16172;DHT22;8192;53.596;10.166;2023-10-08T14:03:46;15.60;99.90
16172;DHT22;8192;53.596;10.166;2023-10-08T14:06:15;15.60;99.90
16172;DHT22;8192;53.596;10.166;2023-10-08T14:08:43;15.60;99.90
16172;DHT22;8192;53.596;10.166;2023-10-08T14:11:17;15.60;99.90
16172;DHT22;8192;53.596;10.166;2023-10-08T14:13:44;15.60;99.90
16172;DHT22;8192;53.596;10.166;2023-10-08T14:16:13;15.50;99.90
16172;DHT22;8192;53.596;10.166;2023-10-08T14:18:43;15.40;99.90
16172;DHT22;8192;53.596;10.166;2023-10-08T14:21:22;15.30;99.90
16172;DHT22;8192;53.596;10.166;2023-10-08T14:23:56;15.20;99.90
16172;DHT22;8192;53.596;10.166;2023-10-08T14:26:28;14.90;99.90
16172;DHT22;8192;53.596;10.166;2023-10-08T14:29:01;14.80;99.90
16172;DHT22;8192;53.596;10.166;2023-10-08T14:31:33;14.60;99.90
16172;DHT22;8192;53.596;10.166;2023-10-08T14:34:04;14.60;99.90
16172;DHT22;8192;53.596;10.166;2023-10-08T14:36:46;14.40;99.90
16172;DHT22;8192;53.596;10.166;2023-10-08T14:39:31;14.30;99.90
16172;DHT22;8192;53.596;10.166;2023-10-08T14:42:15;14.10;99.90
16172;DHT22;8192;53.596;10.166;2023-10-08T14:44:59;14.10;99.90
16172;DHT22;8192;53.596;10.166;2023-10-08T14:47:26;14.20;99.90
16172;DHT22;8192;53.596;10.166;2023-10-08T14:49:53;14.20;99.90
16172;DHT22;8192;53.596;10.166;2023-10-08T14:52:22;14.10;99.90
16172;DHT22;8192;53.596;10.166;2023-10-08T14:54:50;14.00;99.90
16172;DHT22;8192;53.596;10.166;2023-10-08T14:57:21;13.90;99.90
16172;DHT22;8192;53.596;10.166;2023-10-08T14:59:48;13.80;99.90
16172;DHT22;8192;53.596;10.166;2023-10-08T15:02:17;13.70;99.90
16172;DHT22;8192;53.596;10.166;2023-10-08T15:04:44;13.70;99.90
16172;DHT22;8192;53.596;10.166;2023-10-08T15:07:11;13.60;99.90
16172;DHT22;8192;53.596;10.166;2023-10-08T15:09:45;13.60;99.90
16172;DHT22;8192;53.596;10.166;2023-10-08T15:12:11;13.50;99.90
16172;DHT22;8192;53.596;10.166;2023-10-08T15:14:41;13.40;99.90
16172;DHT22;8192;53.596;10.166;2023-10-08T15:17:09;13.40;99.90
16172;DHT22;8192;53.596;10.166;2023-10-08T15:19:38;13.30;99.90
16172;DHT22;8192;53.596;10.166;2023-10-08T15:22:05;13.10;99.90
16172;DHT22;8192;53.596;10.166;2023-10-08T15:24:32;13.10;99.90
16172;DHT22;8192;53.596;10.166;2023-10-08T15:27:04;13.10;99.90
16172;DHT22;8192;53.596;10.166;2023-10-08T15:29:31;13.10;99.90
16172;DHT22;8192;53.596;10.166;2023-10-08T15:31:59;13.00;99.90
16172;DHT22;8192;53.596;10.166;2023-10-08T15:34:26;13.00;99.90
16172;DHT22;8192;53.596;10.166;2023-10-08T15:36:53;12.90;99.90
16172;DHT22;8192;53.596;10.166;2023-10-08T15:39:19;12.90;99.90
16172;DHT22;8192;53.596;10.166;2023-10-08T15:41:48;13.10;99.90
16172;DHT22;8192;53.596;10.166;2023-10-08T15:44:17;13.10;99.90
16172;DHT22;8192;53.596;10.166;2023-10-08T15:46:46;13.00;99.90
16172;DHT22;8192;53.596;10.166;2023-10-08T15:49:13;12.90;99.90
16172;DHT22;8192;53.596;10.166;2023-10-08T15:51:40;12.80;99.90
16172;DHT22;8192;53.596;10.166;2023-10-08T15:54:07;12.70;99.90
16172;DHT22;8192;53.596;10.166;2023-10-08T15:56:35;12.60;99.90
16172;DHT22;8192;53.596;10.166;2023-10-08T15:59:02;12.70;99.90
16172;DHT22;8192;53.596;10.166;2023-10-08T16:01:31;12.60;99.90
16172;DHT22;8192;53.596;10.166;2023-10-08T16:03:58;12.50;99.90